createdAt,value
2019-03-27T00:00:40.983Z,5.37
2019-03-27T00:03:08.952Z,6.60
2019-03-27T00:05:37.663Z,5.10
2019-03-27T00:08:05.895Z,6.47
2019-03-27T00:10:34.379Z,6.70
2019-03-27T00:13:03.199Z,6.80
2019-03-27T00:15:31.776Z,6.70
2019-03-27T00:18:00.349Z,5.07
2019-03-27T00:20:28.409Z,5.90
2019-03-27T00:22:56.801Z,6.43
2019-03-27T00:25:25.022Z,5.00
2019-03-27T00:27:53.131Z,6.30
2019-03-27T00:30:21.120Z,6.30
2019-03-27T00:32:49.104Z,5.43
2019-03-27T00:35:17.208Z,7.20
2019-03-27T00:37:45.282Z,7.70
2019-03-27T00:40:13.617Z,7.67
2019-03-27T00:42:59.962Z,7.47
2019-03-27T00:45:46.829Z,8.03
2019-03-27T00:48:15.616Z,7.07
2019-03-27T00:50:44.113Z,6.53
2019-03-27T00:53:12.245Z,7.30
2019-03-27T00:55:40.225Z,7.57
2019-03-27T00:58:08.510Z,8.63
2019-03-27T01:01:07.320Z,7.70
2019-03-27T01:03:35.746Z,7.20
2019-03-27T01:06:04.541Z,8.70
2019-03-27T01:08:32.925Z,7.67
2019-03-27T01:11:01.424Z,8.63
2019-03-27T01:13:29.343Z,8.30
2019-03-27T01:15:57.460Z,7.47
2019-03-27T01:18:25.608Z,8.63
2019-03-27T01:20:54.331Z,9.57
2019-03-27T01:23:22.463Z,9.10
2019-03-27T01:25:50.673Z,9.50
2019-03-27T01:28:19.130Z,7.90
2019-03-27T01:30:47.430Z,8.17
2019-03-27T01:33:15.574Z,9.33
2019-03-27T01:35:44.458Z,9.40
2019-03-27T01:38:12.321Z,8.30
2019-03-27T01:40:40.282Z,7.97
2019-03-27T01:43:08.796Z,8.73
2019-03-27T01:46:02.099Z,7.33
2019-03-27T01:48:30.481Z,7.17
2019-03-27T01:50:58.478Z,7.50
2019-03-27T01:53:26.682Z,8.60
2019-03-27T01:55:54.585Z,9.90
2019-03-27T01:58:22.834Z,8.23
2019-03-27T02:00:51.026Z,9.63
2019-03-27T02:03:19.621Z,10.83
2019-03-27T02:05:48.802Z,9.37
2019-03-27T02:08:17.027Z,9.40
2019-03-27T02:10:44.997Z,9.60
2019-03-27T02:13:12.974Z,8.90
2019-03-27T02:15:41.322Z,9.00
2019-03-27T02:18:09.432Z,9.20
2019-03-27T02:20:37.957Z,7.77
2019-03-27T02:23:05.846Z,9.83
2019-03-27T02:25:34.700Z,9.60
2019-03-27T02:28:03.257Z,8.63
2019-03-27T02:30:31.959Z,8.63
2019-03-27T02:33:00.223Z,8.50
2019-03-27T02:35:28.545Z,8.20
2019-03-27T02:37:56.788Z,8.00
2019-03-27T02:40:24.746Z,8.40
2019-03-27T02:42:52.781Z,9.00
2019-03-27T02:45:21.118Z,8.07
2019-03-27T02:47:49.392Z,8.00
2019-03-27T02:50:17.546Z,8.60
2019-03-27T02:52:46.553Z,9.00
2019-03-27T02:55:14.635Z,9.03
2019-03-27T02:57:42.754Z,8.50
2019-03-27T03:00:11.592Z,9.07
2019-03-27T03:02:40.073Z,9.13
2019-03-27T03:05:09.268Z,9.70
2019-03-27T03:07:37.747Z,9.40
2019-03-27T03:10:08.013Z,10.23
2019-03-27T03:12:36.112Z,9.60
2019-03-27T03:15:08.980Z,9.50
2019-03-27T03:17:37.625Z,10.90
2019-03-27T03:20:06.927Z,8.97
2019-03-27T03:22:35.374Z,9.53
2019-03-27T03:25:03.973Z,9.10
2019-03-27T03:27:32.665Z,8.40
2019-03-27T03:30:00.754Z,9.73
2019-03-27T03:32:28.975Z,9.00
2019-03-27T03:34:57.110Z,9.97
2019-03-27T03:37:25.875Z,9.93
2019-03-27T03:39:54.289Z,9.90
2019-03-27T03:42:22.374Z,10.07
2019-03-27T03:44:51.550Z,9.70
2019-03-27T03:47:19.804Z,9.53
2019-03-27T03:49:48.363Z,12.53
2019-03-27T03:52:18.920Z,10.53
2019-03-27T03:54:47.253Z,10.90
2019-03-27T03:57:15.900Z,11.00
2019-03-27T03:59:44.928Z,11.50
2019-03-27T04:02:14.241Z,12.00
2019-03-27T04:04:44.007Z,9.90
2019-03-27T04:07:12.037Z,12.07
2019-03-27T04:09:40.623Z,11.17
2019-03-27T04:12:08.591Z,11.63
2019-03-27T04:14:38.748Z,11.23
2019-03-27T04:17:16.880Z,11.63
2019-03-27T04:19:37.217Z,11.00
2019-03-27T04:22:08.747Z,10.67
2019-03-27T04:24:37.894Z,11.30
2019-03-27T04:27:06.013Z,11.30
2019-03-27T04:29:33.913Z,11.40
2019-03-27T04:32:02.282Z,12.17
2019-03-27T04:34:30.287Z,11.53
2019-03-27T04:36:58.513Z,11.20
2019-03-27T04:39:26.812Z,10.80
2019-03-27T04:41:54.703Z,11.07
2019-03-27T04:44:23.147Z,11.47
2019-03-27T04:46:52.442Z,10.00
2019-03-27T04:49:21.142Z,11.87
2019-03-27T04:51:50.050Z,10.87
2019-03-27T04:54:18.577Z,11.47
2019-03-27T04:56:47.436Z,11.00
2019-03-27T04:59:15.691Z,11.87
2019-03-27T05:01:44.390Z,12.50
2019-03-27T05:04:13.473Z,13.10
2019-03-27T05:06:41.808Z,12.47
2019-03-27T05:09:10.953Z,12.73
2019-03-27T05:11:39.506Z,12.03
2019-03-27T05:14:07.899Z,12.13
2019-03-27T05:16:36.681Z,13.07
2019-03-27T05:19:05.261Z,11.43
2019-03-27T05:21:33.770Z,13.77
2019-03-27T05:24:02.827Z,13.93
2019-03-27T05:26:33.281Z,13.80
2019-03-27T05:29:03.294Z,12.40
2019-03-27T05:31:31.834Z,13.13
2019-03-27T05:34:00.663Z,13.60
2019-03-27T05:36:29.437Z,14.50
2019-03-27T05:38:59.065Z,13.03
2019-03-27T05:41:27.628Z,12.90
2019-03-27T05:43:56.974Z,12.20
2019-03-27T05:46:26.585Z,13.10
2019-03-27T05:48:56.253Z,12.37
2019-03-27T05:51:25.207Z,11.77
2019-03-27T05:53:55.079Z,11.87
2019-03-27T05:56:24.567Z,13.60
2019-03-27T05:58:53.486Z,11.30
2019-03-27T06:01:23.436Z,11.87
2019-03-27T06:03:52.067Z,14.43
2019-03-27T06:06:23.206Z,15.27
2019-03-27T06:08:51.478Z,12.70
2019-03-27T06:11:19.658Z,13.17
2019-03-27T06:13:48.022Z,12.37
2019-03-27T06:16:16.518Z,13.10
2019-03-27T06:18:44.627Z,11.60
2019-03-27T06:21:12.767Z,11.17
2019-03-27T06:23:42.221Z,11.60
2019-03-27T06:26:10.717Z,10.73
2019-03-27T06:28:41.234Z,14.13
2019-03-27T06:31:09.504Z,11.47
2019-03-27T06:33:38.563Z,11.40
2019-03-27T06:36:06.343Z,12.83
2019-03-27T06:38:35.158Z,27.23
2019-03-27T06:41:04.102Z,21.23
2019-03-27T06:43:32.695Z,16.53
2019-03-27T06:46:02.081Z,12.80
2019-03-27T06:48:31.471Z,13.57
2019-03-27T06:51:01.848Z,14.00
2019-03-27T06:53:31.541Z,13.73
2019-03-27T06:56:01.700Z,13.87
2019-03-27T06:58:30.634Z,15.20
2019-03-27T07:00:59.753Z,14.73
2019-03-27T07:03:28.777Z,16.37
2019-03-27T07:05:58.169Z,15.10
2019-03-27T07:08:27.405Z,14.90
2019-03-27T07:10:56.388Z,16.20
2019-03-27T07:13:24.884Z,16.47
2019-03-27T07:15:53.567Z,17.80
2019-03-27T07:18:22.084Z,14.73
2019-03-27T07:20:50.626Z,15.47
2019-03-27T07:23:18.661Z,14.20
2019-03-27T07:25:47.402Z,16.07
2019-03-27T07:28:15.387Z,15.00
2019-03-27T07:30:44.042Z,15.60
2019-03-27T07:33:12.224Z,55.13
2019-03-27T07:35:40.614Z,29.57
2019-03-27T07:38:09.083Z,16.53
2019-03-27T07:40:37.669Z,15.33
2019-03-27T07:43:06.292Z,17.60
2019-03-27T07:45:34.715Z,13.70
2019-03-27T07:48:02.981Z,14.03
2019-03-27T07:50:32.524Z,13.73
2019-03-27T07:53:01.156Z,12.20
2019-03-27T07:55:29.353Z,14.60
2019-03-27T07:57:59.579Z,12.10
2019-03-27T08:00:27.986Z,10.93
2019-03-27T08:02:56.971Z,9.70
2019-03-27T08:05:25.118Z,9.70
2019-03-27T08:07:54.033Z,11.00
2019-03-27T08:10:22.594Z,10.87
2019-03-27T08:12:50.831Z,9.50
2019-03-27T08:15:20.777Z,9.83
2019-03-27T08:17:49.736Z,9.30
2019-03-27T08:20:18.485Z,12.00
2019-03-27T08:22:46.655Z,10.10
2019-03-27T08:25:15.033Z,9.80
2019-03-27T08:27:43.697Z,9.77
2019-03-27T08:30:12.642Z,9.53
2019-03-27T08:32:40.827Z,8.93
2019-03-27T08:35:10.184Z,7.27
2019-03-27T08:37:38.672Z,6.67
2019-03-27T08:40:08.044Z,7.20
2019-03-27T08:42:39.381Z,6.90
2019-03-27T08:45:08.398Z,6.90
2019-03-27T08:47:36.807Z,7.37
2019-03-27T08:50:07.509Z,7.00
2019-03-27T08:52:36.011Z,6.30
2019-03-27T08:55:05.303Z,5.77
2019-03-27T08:57:33.739Z,6.17
2019-03-27T09:00:02.846Z,6.90
2019-03-27T09:02:31.261Z,5.73
2019-03-27T09:05:02.737Z,7.00
2019-03-27T09:07:31.346Z,5.90
2019-03-27T09:10:00.339Z,6.10
2019-03-27T09:12:30.327Z,5.43
2019-03-27T09:14:59.632Z,5.70
2019-03-27T09:17:28.252Z,5.63
2019-03-27T09:19:56.363Z,5.50
2019-03-27T09:22:27.221Z,7.07
2019-03-27T09:24:56.298Z,7.10
2019-03-27T09:27:28.255Z,6.17
2019-03-27T09:30:00.105Z,5.93
2019-03-27T09:32:28.813Z,5.30
2019-03-27T09:34:57.880Z,5.17
2019-03-27T09:37:26.923Z,5.93
2019-03-27T09:39:56.251Z,4.30
2019-03-27T09:42:24.606Z,4.93
2019-03-27T09:44:52.702Z,4.57
2019-03-27T09:47:20.820Z,3.83
2019-03-27T09:49:50.102Z,3.70
2019-03-27T09:52:18.230Z,3.07
2019-03-27T09:54:46.988Z,5.00
2019-03-27T09:57:15.369Z,3.80
2019-03-27T09:59:44.231Z,3.47
2019-03-27T10:02:12.954Z,3.03
2019-03-27T10:04:41.745Z,4.00
2019-03-27T10:07:11.044Z,4.60
2019-03-27T10:09:39.443Z,4.30
2019-03-27T10:12:08.037Z,5.50
2019-03-27T10:14:36.598Z,5.07
2019-03-27T10:17:04.758Z,4.80
2019-03-27T10:19:34.165Z,4.80
2019-03-27T10:22:02.952Z,6.80
2019-03-27T10:24:31.122Z,5.30
2019-03-27T10:26:59.814Z,6.93
2019-03-27T10:29:28.739Z,5.80
2019-03-27T10:31:57.992Z,4.80
2019-03-27T10:34:26.253Z,5.87
2019-03-27T10:36:55.583Z,6.13
2019-03-27T10:39:23.861Z,6.40
2019-03-27T10:41:52.129Z,5.53
2019-03-27T10:44:20.288Z,4.80
2019-03-27T10:46:49.106Z,4.60
2019-03-27T10:49:17.431Z,4.50
2019-03-27T10:51:45.840Z,5.30
2019-03-27T10:54:14.108Z,4.17
2019-03-27T10:56:42.147Z,4.20
2019-03-27T10:59:11.451Z,3.70
2019-03-27T11:01:46.093Z,3.33
2019-03-27T11:04:16.566Z,3.37
2019-03-27T11:06:45.476Z,2.90
2019-03-27T11:09:15.677Z,3.20
2019-03-27T11:11:45.154Z,10.87
2019-03-27T11:14:13.957Z,15.43
2019-03-27T11:16:47.890Z,8.20
2019-03-27T11:19:18.971Z,5.13
2019-03-27T11:21:49.016Z,5.10
2019-03-27T11:24:29.463Z,4.20
2019-03-27T11:26:58.647Z,3.10
2019-03-27T11:29:30.209Z,2.93
2019-03-27T11:32:00.483Z,3.57
2019-03-27T11:34:36.772Z,3.67
2019-03-27T11:37:07.238Z,3.30
2019-03-27T11:39:36.034Z,4.10
2019-03-27T11:42:13.816Z,4.20
2019-03-27T11:44:42.009Z,3.67
2019-03-27T11:47:12.461Z,4.57
2019-03-27T11:49:41.092Z,3.50
2019-03-27T11:52:10.205Z,4.13
2019-03-27T11:54:38.811Z,4.13
2019-03-27T11:57:07.691Z,4.20
2019-03-27T11:59:36.375Z,3.80
2019-03-27T12:02:05.447Z,4.00
2019-03-27T12:04:34.334Z,3.87
2019-03-27T12:07:02.802Z,3.47
2019-03-27T12:09:39.724Z,4.13
2019-03-27T12:12:08.162Z,4.40
2019-03-27T12:14:36.553Z,4.03
2019-03-27T12:17:05.771Z,3.50
2019-03-27T12:19:41.015Z,3.77
2019-03-27T12:22:40.608Z,3.10
2019-03-27T12:25:27.583Z,4.50
2019-03-27T12:27:56.103Z,4.57
2019-03-27T12:30:25.109Z,3.67
2019-03-27T12:32:54.525Z,3.70
2019-03-27T12:35:22.932Z,7.80
2019-03-27T12:37:52.783Z,10.70
2019-03-27T12:40:23.838Z,6.60
2019-03-27T12:43:01.991Z,5.60
2019-03-27T12:45:30.975Z,4.10
2019-03-27T12:48:00.003Z,4.10
2019-03-27T12:50:29.142Z,4.30
2019-03-27T12:52:58.564Z,4.53
2019-03-27T12:55:26.881Z,4.43
2019-03-27T12:57:55.416Z,4.47
2019-03-27T13:00:32.375Z,4.10
2019-03-27T13:03:01.217Z,4.03
2019-03-27T13:05:30.332Z,3.03
2019-03-27T13:07:59.479Z,3.03
2019-03-27T13:10:29.088Z,3.63
2019-03-27T13:12:58.991Z,3.30
2019-03-27T13:15:29.039Z,3.00
2019-03-27T13:18:04.846Z,2.37
2019-03-27T13:20:33.845Z,3.33
2019-03-27T13:23:02.034Z,4.43
2019-03-27T13:25:30.817Z,4.10
2019-03-27T13:27:59.351Z,3.20
2019-03-27T13:30:41.923Z,3.27
2019-03-27T13:33:10.677Z,3.80
2019-03-27T13:35:39.516Z,4.73
2019-03-27T13:38:09.144Z,3.30
2019-03-27T13:40:43.331Z,3.53
2019-03-27T13:43:12.686Z,4.00
2019-03-27T13:45:41.059Z,3.20
2019-03-27T13:48:13.718Z,2.60
2019-03-27T13:50:42.756Z,3.20
2019-03-27T13:53:33.138Z,3.50
2019-03-27T13:56:02.150Z,3.93
2019-03-27T13:58:39.331Z,2.90
2019-03-27T14:01:12.767Z,2.20
2019-03-27T14:03:40.323Z,2.90
2019-03-27T14:06:09.440Z,3.90
2019-03-27T14:08:38.473Z,3.40
2019-03-27T14:11:06.984Z,4.23
2019-03-27T14:13:45.079Z,4.70
2019-03-27T14:16:15.482Z,4.23
2019-03-27T14:18:49.184Z,3.77
2019-03-27T14:21:18.601Z,4.43
2019-03-27T14:23:47.366Z,4.67
2019-03-27T14:26:16.304Z,3.93
2019-03-27T14:28:45.305Z,4.47
2019-03-27T14:31:13.656Z,4.07
2019-03-27T14:33:42.303Z,4.30
2019-03-27T14:36:10.704Z,4.07
2019-03-27T14:38:39.576Z,3.80
2019-03-27T14:41:09.815Z,4.07
2019-03-27T14:43:40.860Z,3.57
2019-03-27T14:46:13.168Z,3.20
2019-03-27T14:48:42.090Z,3.87
2019-03-27T14:51:10.797Z,4.20
2019-03-27T14:53:40.067Z,3.50
2019-03-27T14:56:09.412Z,3.67
2019-03-27T14:58:38.747Z,3.43
2019-03-27T15:01:07.742Z,2.97
2019-03-27T15:03:36.255Z,2.87
2019-03-27T15:06:06.315Z,2.80
2019-03-27T15:08:34.818Z,3.40
2019-03-27T15:11:04.862Z,12.17
2019-03-27T15:13:33.378Z,13.13
2019-03-27T15:16:03.682Z,7.00
2019-03-27T15:18:32.932Z,5.50
2019-03-27T15:21:01.459Z,3.70
2019-03-27T15:23:29.908Z,4.20
2019-03-27T15:25:59.383Z,3.17
2019-03-27T15:28:30.989Z,3.60
2019-03-27T15:31:01.311Z,3.63
2019-03-27T15:33:30.083Z,4.23
2019-03-27T15:35:58.815Z,4.73
2019-03-27T15:38:27.389Z,4.27
2019-03-27T15:40:55.805Z,4.30
2019-03-27T15:43:24.070Z,3.90
2019-03-27T15:45:52.138Z,3.83
2019-03-27T15:48:43.889Z,4.20
2019-03-27T15:51:13.008Z,4.30
2019-03-27T15:53:41.533Z,4.40
2019-03-27T15:56:09.797Z,3.40
2019-03-27T15:58:39.113Z,4.87
2019-03-27T16:01:11.994Z,5.13
2019-03-27T16:03:41.741Z,4.57
2019-03-27T16:06:10.585Z,3.37
2019-03-27T16:08:39.353Z,2.90
2019-03-27T16:11:08.337Z,3.63
2019-03-27T16:13:51.521Z,9.83
2019-03-27T16:16:19.919Z,13.77
2019-03-27T16:18:48.006Z,8.83
2019-03-27T16:21:16.315Z,6.60
2019-03-27T16:23:46.531Z,4.90
2019-03-27T16:26:15.263Z,4.27
2019-03-27T16:28:45.166Z,3.43
2019-03-27T16:31:14.407Z,4.07
2019-03-27T16:33:42.971Z,3.53
2019-03-27T16:36:12.107Z,3.60
2019-03-27T16:38:40.848Z,3.70
2019-03-27T16:41:09.702Z,3.20
2019-03-27T16:43:38.721Z,3.10
2019-03-27T16:46:08.027Z,3.33
2019-03-27T16:48:36.813Z,2.73
2019-03-27T16:51:10.172Z,3.70
2019-03-27T16:53:54.582Z,3.77
2019-03-27T16:56:22.811Z,3.03
2019-03-27T16:58:52.143Z,3.33
2019-03-27T17:01:20.511Z,4.57
2019-03-27T17:03:50.651Z,3.47
2019-03-27T17:06:20.758Z,4.83
2019-03-27T17:08:50.712Z,3.10
2019-03-27T17:11:20.287Z,2.90
2019-03-27T17:13:57.735Z,3.77
2019-03-27T17:16:29.731Z,5.80
2019-03-27T17:18:58.827Z,7.60
2019-03-27T17:21:27.667Z,5.37
2019-03-27T17:23:56.189Z,5.03
2019-03-27T17:26:24.563Z,4.73
2019-03-27T17:28:52.583Z,3.90
2019-03-27T17:31:21.829Z,4.17
2019-03-27T17:33:50.233Z,4.20
2019-03-27T17:36:18.903Z,4.80
2019-03-27T17:38:47.015Z,3.63
2019-03-27T17:41:15.564Z,3.50
2019-03-27T17:43:44.445Z,4.37
2019-03-27T17:46:14.219Z,4.10
2019-03-27T17:48:42.975Z,3.90
2019-03-27T17:51:11.548Z,3.53
2019-03-27T17:53:40.335Z,3.63
2019-03-27T17:56:08.697Z,3.30
2019-03-27T17:58:37.334Z,4.30
2019-03-27T18:01:06.274Z,4.10
2019-03-27T18:03:36.910Z,3.40
2019-03-27T18:06:05.620Z,3.93
2019-03-27T18:08:34.595Z,5.20
2019-03-27T18:11:02.790Z,5.17
2019-03-27T18:13:31.972Z,3.90
2019-03-27T18:16:01.634Z,4.37
2019-03-27T18:18:30.002Z,4.47
2019-03-27T18:20:59.373Z,3.13
2019-03-27T18:23:45.201Z,4.63
2019-03-27T18:26:04.135Z,4.70
2019-03-27T18:28:32.525Z,4.57
2019-03-27T18:31:01.569Z,4.63
2019-03-27T18:33:30.246Z,3.73
2019-03-27T18:35:58.624Z,4.27
2019-03-27T18:38:27.097Z,4.00
2019-03-27T18:40:55.281Z,5.20
2019-03-27T18:43:23.455Z,4.03
2019-03-27T18:45:52.812Z,4.20
2019-03-27T18:48:21.241Z,4.90
2019-03-27T18:50:49.652Z,4.27
2019-03-27T18:53:18.522Z,4.63
2019-03-27T18:55:46.654Z,4.57
2019-03-27T18:58:15.291Z,4.80
2019-03-27T19:00:44.104Z,5.20
2019-03-27T19:03:12.673Z,4.70
2019-03-27T19:05:41.091Z,4.70
2019-03-27T19:08:09.673Z,9.77
2019-03-27T19:10:38.032Z,13.43
2019-03-27T19:13:06.225Z,10.37
2019-03-27T19:15:34.898Z,10.40
2019-03-27T19:18:03.935Z,7.53
2019-03-27T19:20:32.722Z,6.03
2019-03-27T19:23:01.364Z,5.87
2019-03-27T19:25:30.338Z,5.70
2019-03-27T19:27:58.681Z,5.60
2019-03-27T19:30:27.679Z,6.40
2019-03-27T19:32:56.284Z,6.57
2019-03-27T19:35:25.250Z,6.30
2019-03-27T19:37:54.876Z,5.47
2019-03-27T19:40:22.931Z,5.53
2019-03-27T19:42:51.478Z,6.00
2019-03-27T19:45:19.757Z,5.87
2019-03-27T19:47:48.835Z,5.73
2019-03-27T19:50:18.210Z,6.00
2019-03-27T19:52:47.693Z,5.23
2019-03-27T19:55:16.268Z,6.00
2019-03-27T19:57:45.010Z,5.63
2019-03-27T20:00:14.196Z,5.90
2019-03-27T20:02:42.507Z,5.67
2019-03-27T20:05:11.133Z,5.13
2019-03-27T20:07:39.281Z,5.70
2019-03-27T20:10:07.844Z,5.40
2019-03-27T20:12:36.766Z,5.60
2019-03-27T20:15:12.094Z,5.47
2019-03-27T20:17:37.770Z,5.70
2019-03-27T20:20:08.183Z,5.97
2019-03-27T20:22:36.767Z,5.80
2019-03-27T20:25:06.522Z,5.80
2019-03-27T20:27:35.159Z,5.93
2019-03-27T20:30:04.998Z,6.10
2019-03-27T20:32:34.179Z,5.60
2019-03-27T20:35:03.361Z,6.13
2019-03-27T20:37:32.320Z,6.63
2019-03-27T20:40:00.859Z,6.17
2019-03-27T20:42:29.711Z,7.97
2019-03-27T20:44:58.832Z,7.23
2019-03-27T20:47:28.382Z,6.50
2019-03-27T20:49:57.295Z,7.00
2019-03-27T20:52:25.657Z,12.00
2019-03-27T20:54:55.513Z,11.77
2019-03-27T20:57:25.107Z,8.57
2019-03-27T20:59:53.804Z,8.10
2019-03-27T21:02:24.023Z,7.40
2019-03-27T21:04:52.741Z,6.40
2019-03-27T21:07:24.602Z,6.20
2019-03-27T21:09:53.908Z,6.00
2019-03-27T21:12:22.121Z,5.90
2019-03-27T21:14:50.627Z,5.70
2019-03-27T21:17:21.951Z,6.43
2019-03-27T21:19:50.233Z,5.83
2019-03-27T21:22:18.635Z,5.80
2019-03-27T21:24:46.798Z,6.33
2019-03-27T21:27:16.819Z,6.17
2019-03-27T21:29:45.638Z,6.73
2019-03-27T21:32:14.577Z,7.30
2019-03-27T21:34:43.091Z,6.20
2019-03-27T21:37:13.182Z,7.10
2019-03-27T21:39:42.019Z,6.63
2019-03-27T21:42:10.111Z,7.33
2019-03-27T21:44:38.340Z,7.07
2019-03-27T21:47:07.374Z,7.80
2019-03-27T21:49:36.238Z,7.53
2019-03-27T21:52:04.526Z,6.80
2019-03-27T21:54:32.931Z,6.73
2019-03-27T21:57:01.509Z,7.80
2019-03-27T21:59:29.729Z,7.30
2019-03-27T22:01:58.056Z,7.53
2019-03-27T22:04:26.512Z,8.00
2019-03-27T22:06:54.890Z,6.93
2019-03-27T22:09:23.958Z,7.33
2019-03-27T22:11:53.066Z,7.20
2019-03-27T22:14:21.360Z,7.20
2019-03-27T22:16:50.112Z,7.10
2019-03-27T22:19:18.695Z,6.43
2019-03-27T22:21:47.442Z,7.33
2019-03-27T22:24:15.874Z,6.70
2019-03-27T22:26:44.233Z,7.17
2019-03-27T22:29:13.051Z,8.53
2019-03-27T22:31:41.248Z,8.00
2019-03-27T22:34:09.487Z,7.93
2019-03-27T22:36:38.058Z,7.50
2019-03-27T22:39:08.483Z,7.33
2019-03-27T22:41:36.891Z,7.37
2019-03-27T22:44:05.958Z,7.93
2019-03-27T22:46:34.644Z,8.07
2019-03-27T22:49:02.821Z,8.57
2019-03-27T22:51:31.004Z,8.10
2019-03-27T22:53:59.273Z,7.70
2019-03-27T22:56:27.540Z,8.50
2019-03-27T22:58:55.718Z,8.43
2019-03-27T23:01:23.849Z,8.43
2019-03-27T23:03:53.142Z,8.83
2019-03-27T23:06:21.515Z,7.60
2019-03-27T23:08:49.588Z,8.00
2019-03-27T23:11:18.296Z,8.30
2019-03-27T23:13:46.896Z,8.33
2019-03-27T23:16:15.455Z,7.17
2019-03-27T23:18:44.503Z,8.73
2019-03-27T23:21:12.768Z,7.40
2019-03-27T23:23:41.168Z,7.43
2019-03-27T23:26:09.173Z,7.20
2019-03-27T23:28:37.436Z,8.27
2019-03-27T23:31:05.725Z,7.53
2019-03-27T23:33:33.971Z,8.20
2019-03-27T23:36:02.306Z,8.33
2019-03-27T23:38:31.104Z,8.83
2019-03-27T23:40:59.911Z,7.93
2019-03-27T23:43:28.236Z,7.80
2019-03-27T23:45:57.240Z,8.47
2019-03-27T23:48:26.324Z,7.70
2019-03-27T23:50:55.045Z,8.20
2019-03-27T23:53:24.045Z,6.83
2019-03-27T23:55:52.630Z,7.20
2019-03-27T23:58:21.121Z,7.70
